Time;durP1;ratioP1;P1;durP2;ratioP2;P2;SDS_P1;SDS_P2;PMS_P1;PMS_P2;Temp;Humidity;BMP_temperature;BMP_pressure;BME280_temperature;BME280_humidity;BME280_pressure;Samples;Min_cycle;Max_cycle;Signal;HPM_P1;HPM_P2
2023/03/18 00:02:26;;;;;;;;;;;;;;;4.32;83.79;100206.03;5112763;28;858;-75
2023/03/18 00:04:52;;;;;;;;;;;;;;;4.35;82.48;100208.06;5112784;28;803;-68
2023/03/18 00:07:20;;;;;;;;;;;;;;;4.35;81.47;100211.59;5112856;28;931;-69
2023/03/18 00:09:46;;;;;;;;;;;;;;;4.36;80.04;100204.19;5112955;28;996;-69
2023/03/18 00:12:12;;;;;;;;;;;;;;;4.30;79.38;100209.91;5112476;28;1221;-71
2023/03/18 00:14:39;;;;;;;;;;;;;;;4.35;77.07;100208.84;5112514;28;1902;-67
2023/03/18 00:17:08;;;;;;;;;;;;;;;4.40;76.99;100194.16;5112446;28;1064;-68
2023/03/18 00:19:38;;;;;;;;;;;;;;;4.35;77.19;100180.69;5112521;28;871;-72
2023/03/18 00:22:05;;;;;;;;;;;;;;;4.36;75.68;100188.56;5112500;28;894;-69
2023/03/18 00:24:31;;;;;;;;;;;;;;;4.38;75.54;100197.22;5112342;28;877;-68
2023/03/18 00:26:58;;;;;;;;;;;;;;;4.37;75.11;100189.34;5112282;28;870;-70
2023/03/18 00:29:24;;;;;;;;;;;;;;;4.33;75.36;100183.78;5112256;28;929;-69
2023/03/18 00:31:51;;;;;;;;;;;;;;;4.38;71.83;100189.00;5112422;28;890;-67
2023/03/18 00:34:19;;;;;;;;;;;;;;;4.43;72.38;100174.28;5112245;28;1909;-70
2023/03/18 00:36:49;;;;;;;;;;;;;;;4.39;73.18;100171.44;5112123;28;942;-70
2023/03/18 00:39:20;;;;;;;;;;;;;;;4.35;72.76;100180.69;5112354;28;855;-70
2023/03/18 00:41:47;;;;;;;;;;;;;;;4.34;72.63;100181.88;5112578;28;823;-70
2023/03/18 00:44:14;;;;;;;;;;;;;;;4.33;73.08;100172.03;5112306;28;914;-68
2023/03/18 00:46:40;;;;;;;;;;;;;;;4.28;73.14;100152.00;5112433;28;822;-70
2023/03/18 00:49:07;;;;;;;;;;;;;;;4.30;71.89;100173.56;5112330;28;807;-67
2023/03/18 00:51:36;;;;;;;;;;;;;;;4.26;72.20;100173.44;5112287;28;847;-68
2023/03/18 00:54:06;;;;;;;;;;;;;;;4.29;70.44;100164.56;5111990;28;1961;-70
2023/03/18 00:56:32;;;;;;;;;;;;;;;4.33;70.84;100161.09;5112042;28;839;-70
2023/03/18 00:58:59;;;;;;;;;;;;;;;4.30;71.94;100171.59;5112084;28;937;-68
2023/03/18 01:01:26;;;;;;;;;;;;;;;4.22;72.19;100166.28;5112065;28;815;-70
2023/03/18 01:03:54;;;;;;;;;;;;;;;4.17;71.94;100178.28;5110444;28;1338;-70
2023/03/18 01:06:23;;;;;;;;;;;;;;;4.16;71.44;100164.94;5110531;28;1266;-70
2023/03/18 01:08:50;;;;;;;;;;;;;;;4.13;71.17;100162.94;5112359;28;947;-70
2023/03/18 01:11:17;;;;;;;;;;;;;;;4.08;71.01;100164.00;5112066;28;922;-71
2023/03/18 01:13:44;;;;;;;;;;;;;;;4.07;70.49;100151.44;5111544;28;1972;-73
2023/03/18 01:16:13;;;;;;;;;;;;;;;4.02;72.57;100152.50;5111780;28;850;-71
2023/03/18 01:18:40;;;;;;;;;;;;;;;3.99;70.75;100152.38;5111807;28;889;-68
2023/03/18 01:21:07;;;;;;;;;;;;;;;4.02;70.46;100165.38;5111739;28;858;-68
2023/03/18 01:23:34;;;;;;;;;;;;;;;4.06;69.42;100155.34;5111729;28;803;-70
2023/03/18 01:26:02;;;;;;;;;;;;;;;3.97;70.71;100152.75;5111684;28;878;-69
2023/03/18 01:28:28;;;;;;;;;;;;;;;3.83;72.35;100149.63;5110391;28;862;-71
2023/03/18 01:30:56;;;;;;;;;;;;;;;3.65;73.40;100162.81;5110262;28;1162;-69
2023/03/18 01:33:24;;;;;;;;;;;;;;;3.60;73.83;100165.75;5111549;28;1969;-68
2023/03/18 01:35:54;;;;;;;;;;;;;;;3.57;73.76;100169.19;5111488;28;945;-69
2023/03/18 01:38:22;;;;;;;;;;;;;;;3.46;75.07;100160.69;5111635;28;827;-70
2023/03/18 01:40:49;;;;;;;;;;;;;;;3.44;74.46;100162.97;5111773;28;878;-69
2023/03/18 01:43:25;;;;;;;;;;;;;;;3.37;74.64;100166.28;5111590;28;850;-68
2023/03/18 01:45:53;;;;;;;;;;;;;;;3.40;74.34;100164.81;5111484;28;847;-69
2023/03/18 01:48:22;;;;;;;;;;;;;;;3.27;76.47;100162.09;5111543;28;783;-69
2023/03/18 01:50:59;;;;;;;;;;;;;;;3.18;77.46;100163.34;5111712;28;811;-68
2023/03/18 01:53:34;;;;;;;;;;;;;;;3.16;76.81;100147.31;5111308;28;1945;-69
2023/03/18 01:56:02;;;;;;;;;;;;;;;3.24;74.97;100160.06;5111620;28;871;-71
2023/03/18 01:58:33;;;;;;;;;;;;;;;3.18;75.59;100157.88;5114127;28;1052;-72
2023/03/18 02:01:05;;;;;;;;;;;;;;;3.04;77.34;100159.03;5115196;28;842;-69
2023/03/18 02:03:33;;;;;;;;;;;;;;;3.06;76.20;100158.69;5115132;27;823;-70
2023/03/18 02:06:00;;;;;;;;;;;;;;;3.08;75.88;100159.16;5115160;28;905;-70
2023/03/18 02:08:27;;;;;;;;;;;;;;;3.13;75.11;100144.47;5115097;28;955;-71
2023/03/18 02:10:54;;;;;;;;;;;;;;;3.17;74.34;100151.63;5113617;28;1319;-67
2023/03/18 02:13:21;;;;;;;;;;;;;;;3.07;75.72;100135.69;5114588;28;2003;-75
2023/03/18 02:15:54;;;;;;;;;;;;;;;2.99;75.77;100147.56;5114849;28;847;-72
2023/03/18 02:18:24;;;;;;;;;;;;;;;3.03;74.66;100157.47;5114909;28;831;-69
2023/03/18 02:21:06;;;;;;;;;;;;;;;3.05;73.94;100165.28;5114929;28;851;-69
2023/03/18 02:23:42;;;;;;;;;;;;;;;2.97;74.13;100158.03;5114838;28;808;-67
2023/03/18 02:26:28;;;;;;;;;;;;;;;2.91;74.45;100152.00;5114543;28;855;-69
2023/03/18 02:28:58;;;;;;;;;;;;;;;2.91;73.60;100171.09;5114630;28;815;-69
2023/03/18 02:31:26;;;;;;;;;;;;;;;3.03;71.98;100159.38;5114603;28;934;-70
2023/03/18 02:33:52;;;;;;;;;;;;;;;2.99;73.38;100158.50;5114345;28;1898;-68
2023/03/18 02:36:24;;;;;;;;;;;;;;;2.88;72.30;100163.63;5114519;28;827;-72
2023/03/18 02:38:50;;;;;;;;;;;;;;;2.95;72.44;100157.59;5114403;28;827;-72
2023/03/18 02:41:19;;;;;;;;;;;;;;;2.84;72.76;100171.69;5114341;28;944;-68
2023/03/18 02:43:46;;;;;;;;;;;;;;;2.85;72.38;100167.00;5114338;28;885;-70
2023/03/18 02:46:31;;;;;;;;;;;;;;;2.89;72.49;100169.88;5114296;28;831;-67
2023/03/18 02:48:59;;;;;;;;;;;;;;;2.90;71.89;100158.59;5114172;28;867;-68
2023/03/18 02:51:27;;;;;;;;;;;;;;;2.91;71.53;100162.13;5114064;28;811;-68
2023/03/18 02:53:56;;;;;;;;;;;;;;;2.87;71.80;100159.28;5114018;28;1948;-69
2023/03/18 02:56:23;;;;;;;;;;;;;;;2.84;70.56;100158.03;5114121;27;885;-68
2023/03/18 02:58:50;;;;;;;;;;;;;;;2.77;71.45;100165.19;5114001;28;909;-69
2023/03/18 03:01:18;;;;;;;;;;;;;;;2.78;70.66;100161.34;5113945;28;807;-69
2023/03/18 03:03:45;;;;;;;;;;;;;;;2.75;70.77;100162.81;5113928;28;830;-67
2023/03/18 03:06:12;;;;;;;;;;;;;;;2.80;70.92;100170.78;5113984;28;811;-67
2023/03/18 03:08:39;;;;;;;;;;;;;;;2.80;70.92;100187.16;5112999;28;1017;-67
2023/03/18 03:11:07;;;;;;;;;;;;;;;2.76;72.52;100169.06;5112557;28;1664;-71
2023/03/18 03:13:34;;;;;;;;;;;;;;;2.68;73.83;100172.69;5113524;28;1980;-68
2023/03/18 03:16:01;;;;;;;;;;;;;;;2.55;74.12;100178.13;5113640;28;823;-69
2023/03/18 03:18:29;;;;;;;;;;;;;;;2.42;75.59;100177.31;5113583;28;930;-67
2023/03/18 03:20:55;;;;;;;;;;;;;;;2.35;76.70;100193.47;5113596;28;850;-67
2023/03/18 03:23:22;;;;;;;;;;;;;;;2.34;76.59;100189.13;5112194;28;1189;-68
2023/03/18 03:25:49;;;;;;;;;;;;;;;2.30;76.97;100190.94;5113412;28;883;-67
2023/03/18 03:28:16;;;;;;;;;;;;;;;2.24;77.19;100189.53;5113408;28;830;-67
2023/03/18 03:30:43;;;;;;;;;;;;;;;2.21;77.30;100177.38;5113424;28;834;-68
2023/03/18 03:33:09;;;;;;;;;;;;;;;2.15;77.79;100172.47;5113191;28;1866;-67
2023/03/18 03:35:37;;;;;;;;;;;;;;;2.12;76.61;100173.97;5113316;28;847;-68
2023/03/18 03:38:04;;;;;;;;;;;;;;;2.15;76.97;100175.22;5113230;28;843;-70
2023/03/18 03:40:30;;;;;;;;;;;;;;;2.14;76.82;100177.16;5111883;28;1298;-69
2023/03/18 03:42:57;;;;;;;;;;;;;;;2.16;74.92;100174.88;5111756;28;1273;-69
2023/03/18 03:45:24;;;;;;;;;;;;;;;2.23;73.84;100185.25;5113017;28;866;-69
2023/03/18 03:47:51;;;;;;;;;;;;;;;2.23;73.75;100174.31;5113292;28;862;-67
2023/03/18 03:50:18;;;;;;;;;;;;;;;2.30;73.35;100177.28;5113270;28;855;-67
2023/03/18 03:52:45;;;;;;;;;;;;;;;2.28;73.38;100178.75;5112783;28;1952;-67
2023/03/18 03:55:15;;;;;;;;;;;;;;;2.21;73.33;100191.03;5112991;28;858;-67
2023/03/18 03:57:41;;;;;;;;;;;;;;;2.19;72.58;100182.38;5112980;28;921;-67
2023/03/18 04:00:13;;;;;;;;;;;;;;;2.28;71.83;100189.69;5111462;28;1190;-68
2023/03/18 04:02:42;;;;;;;;;;;;;;;2.29;70.35;100180.38;5113595;28;780;-65
2023/03/18 04:05:10;;;;;;;;;;;;;;;2.41;69.52;100180.38;5113028;28;905;-69
2023/03/18 04:07:37;;;;;;;;;;;;;;;2.36;69.29;100175.16;5112646;28;843;-69
2023/03/18 04:10:04;;;;;;;;;;;;;;;2.44;67.14;100188.69;5112952;28;972;-71
2023/03/18 04:12:31;;;;;;;;;;;;;;;2.50;66.92;100183.00;5112207;28;1974;-67
2023/03/18 04:14:58;;;;;;;;;;;;;;;2.60;66.57;100180.66;5112557;28;914;-67
2023/03/18 04:17:24;;;;;;;;;;;;;;;2.53;67.47;100190.53;5112446;28;807;-68
2023/03/18 04:19:50;;;;;;;;;;;;;;;2.44;67.90;100185.19;5112234;28;936;-68
2023/03/18 04:22:17;;;;;;;;;;;;;;;2.34;68.99;100189.13;5112362;28;834;-69
2023/03/18 04:24:44;;;;;;;;;;;;;;;2.29;68.87;100183.88;5112607;28;880;-67
2023/03/18 04:27:10;;;;;;;;;;;;;;;2.29;67.92;100183.09;5112837;28;953;-67
2023/03/18 04:29:36;;;;;;;;;;;;;;;2.34;68.10;100180.94;5112523;28;831;-68
2023/03/18 04:32:02;;;;;;;;;;;;;;;2.32;67.34;100185.13;5112258;28;803;-67
2023/03/18 04:34:29;;;;;;;;;;;;;;;2.32;67.92;100182.41;5112083;28;1890;-68
2023/03/18 04:36:56;;;;;;;;;;;;;;;2.21;69.21;100193.75;5112156;28;917;-70
2023/03/18 04:39:23;;;;;;;;;;;;;;;2.31;68.83;100186.28;5112084;28;879;-69
2023/03/18 04:41:50;;;;;;;;;;;;;;;2.30;68.88;100180.00;5112185;28;854;-68
2023/03/18 04:44:16;;;;;;;;;;;;;;;2.29;69.24;100196.75;5112107;28;823;-67
2023/03/18 04:46:43;;;;;;;;;;;;;;;2.30;68.96;100190.94;5112080;28;882;-67
2023/03/18 04:49:10;;;;;;;;;;;;;;;2.38;67.66;100191.97;5112062;28;909;-66
2023/03/18 04:51:36;;;;;;;;;;;;;;;2.48;66.39;100202.47;5110676;28;1365;-67
2023/03/18 04:54:03;;;;;;;;;;;;;;;2.52;66.41;100203.38;5111901;28;1882;-69
2023/03/18 04:56:30;;;;;;;;;;;;;;;2.67;64.94;100199.19;5111997;28;827;-68
2023/03/18 04:58:56;;;;;;;;;;;;;;;2.94;64.65;100208.66;5111875;28;830;-69
2023/03/18 05:01:23;;;;;;;;;;;;;;;3.10;62.56;100208.78;5111913;28;874;-68
2023/03/18 05:03:49;;;;;;;;;;;;;;;3.18;62.16;100209.78;5111949;28;905;-68
2023/03/18 05:06:25;;;;;;;;;;;;;;;3.25;61.18;100207.28;5111694;28;937;-69
2023/03/18 05:08:52;;;;;;;;;;;;;;;3.22;60.86;100207.94;5112076;28;924;-68
2023/03/18 05:11:19;;;;;;;;;;;;;;;3.38;60.18;100214.31;5111842;28;862;-68
2023/03/18 05:13:46;;;;;;;;;;;;;;;3.57;59.13;100211.00;5111633;28;1905;-71
2023/03/18 05:16:12;;;;;;;;;;;;;;;3.68;57.60;100209.34;5111760;28;858;-67
2023/03/18 05:18:40;;;;;;;;;;;;;;;3.86;58.86;100214.53;5111994;28;831;-69
2023/03/18 05:21:07;;;;;;;;;;;;;;;4.05;56.70;100212.00;5111619;28;823;-69
2023/03/18 05:23:34;;;;;;;;;;;;;;;4.07;57.79;100211.63;5111769;28;823;-67
2023/03/18 05:26:02;;;;;;;;;;;;;;;4.07;58.24;100214.34;5111732;28;883;-69
2023/03/18 05:28:28;;;;;;;;;;;;;;;4.14;57.61;100211.03;5111638;28;961;-68
2023/03/18 05:30:55;;;;;;;;;;;;;;;4.26;57.30;100216.44;5111708;28;886;-68
2023/03/18 05:33:21;;;;;;;;;;;;;;;4.45;55.60;100210.31;5114572;28;1933;-68
2023/03/18 05:35:48;;;;;;;;;;;;;;;4.73;55.00;100203.97;5115656;28;867;-68
2023/03/18 05:38:14;;;;;;;;;;;;;;;5.09;53.46;100209.16;5115573;28;842;-68
2023/03/18 05:40:41;;;;;;;;;;;;;;;5.42;52.23;100190.69;5114346;28;1266;-69
2023/03/18 05:43:07;;;;;;;;;;;;;;;5.64;50.64;100191.97;5115852;28;874;-69
2023/03/18 05:45:34;;;;;;;;;;;;;;;5.84;49.83;100192.78;5115828;28;910;-68
2023/03/18 05:48:00;;;;;;;;;;;;;;;6.06;49.34;100196.75;5116017;28;866;-67
2023/03/18 05:50:36;;;;;;;;;;;;;;;6.29;48.10;100197.63;5115325;28;828;-67
2023/03/18 05:53:04;;;;;;;;;;;;;;;6.33;46.87;100187.47;5115280;28;1885;-68
2023/03/18 05:55:31;;;;;;;;;;;;;;;6.20;45.78;100205.28;5115258;28;890;-70
2023/03/18 05:57:59;;;;;;;;;;;;;;;6.04;47.03;100196.31;5113913;28;1182;-69
2023/03/18 06:00:27;;;;;;;;;;;;;;;5.92;47.11;100200.78;5115057;28;855;-68
2023/03/18 06:02:54;;;;;;;;;;;;;;;6.06;47.06;100216.78;5115485;28;839;-69
2023/03/18 06:05:21;;;;;;;;;;;;;;;6.17;48.11;100210.72;5115002;28;910;-67
2023/03/18 06:07:48;;;;;;;;;;;;;;;6.25;47.60;100207.75;5114961;28;975;-68
2023/03/18 06:10:14;;;;;;;;;;;;;;;6.41;47.58;100209.59;5115153;28;807;-68
2023/03/18 06:12:43;;;;;;;;;;;;;;;6.47;47.23;100228.16;5114359;28;1909;-66
2023/03/18 06:15:10;;;;;;;;;;;;;;;6.36;47.54;100218.09;5114961;28;843;-69
2023/03/18 06:17:38;;;;;;;;;;;;;;;6.30;48.64;100206.66;5115214;28;827;-67
2023/03/18 06:20:07;;;;;;;;;;;;;;;6.14;48.92;100209.47;5114659;28;819;-67
2023/03/18 06:22:34;;;;;;;;;;;;;;;6.24;49.79;100211.63;5114807;28;878;-67
2023/03/18 06:25:01;;;;;;;;;;;;;;;6.56;49.56;100216.94;5114616;28;902;-67
2023/03/18 06:27:28;;;;;;;;;;;;;;;6.88;48.67;100222.97;5114904;28;880;-69
2023/03/18 06:29:55;;;;;;;;;;;;;;;6.86;49.50;100227.25;5114596;28;834;-66
2023/03/18 06:32:21;;;;;;;;;;;;;;;6.79;47.38;100229.88;5114570;28;854;-70
2023/03/18 06:34:49;;;;;;;;;;;;;;;6.73;49.03;100216.44;5114402;28;1943;-66
2023/03/18 06:37:16;;;;;;;;;;;;;;;6.69;49.44;100237.56;5114455;28;830;-68
2023/03/18 06:39:43;;;;;;;;;;;;;;;6.70;49.56;100236.41;5114442;28;914;-67
2023/03/18 06:42:09;;;;;;;;;;;;;;;6.68;48.33;100230.50;5114342;28;842;-69
2023/03/18 06:44:35;;;;;;;;;;;;;;;6.90;49.01;100226.16;5114191;28;862;-66
2023/03/18 06:47:02;;;;;;;;;;;;;;;7.43;47.78;100230.91;5114247;28;834;-68
2023/03/18 06:49:30;;;;;;;;;;;;;;;7.47;46.84;100229.00;5114193;28;819;-66
2023/03/18 06:52:01;;;;;;;;;;;;;;;7.54;48.06;100231.84;5114133;28;957;-66
2023/03/18 06:54:28;;;;;;;;;;;;;;;7.50;46.64;100217.25;5114030;28;1957;-67
2023/03/18 06:56:55;;;;;;;;;;;;;;;7.32;46.52;100224.47;5114000;28;874;-70
2023/03/18 06:59:22;;;;;;;;;;;;;;;7.09;47.80;100228.03;5114044;27;811;-68
2023/03/18 07:01:48;;;;;;;;;;;;;;;6.99;48.48;100222.34;5113940;28;855;-68
2023/03/18 07:04:14;;;;;;;;;;;;;;;7.27;48.68;100220.03;5113956;28;913;-67
2023/03/18 07:06:41;;;;;;;;;;;;;;;7.70;47.98;100222.63;5113873;28;834;-67
2023/03/18 07:09:10;;;;;;;;;;;;;;;8.38;46.72;100221.50;5114063;28;982;-68
2023/03/18 07:11:36;;;;;;;;;;;;;;;8.78;45.70;100214.41;5113526;28;1386;-67
2023/03/18 07:14:04;;;;;;;;;;;;;;;8.82;44.84;100221.94;5113783;28;1914;-67
2023/03/18 07:16:58;;;;;;;;;;;;;;;8.73;45.02;100220.28;5113701;28;858;-66
2023/03/18 07:19:25;;;;;;;;;;;;;;;9.24;43.76;100218.72;5113598;28;835;-68
2023/03/18 07:21:51;;;;;;;;;;;;;;;8.73;43.97;100211.22;5113560;28;831;-68
2023/03/18 07:24:19;;;;;;;;;;;;;;;8.63;43.75;100204.44;5113582;28;898;-70
2023/03/18 07:26:49;;;;;;;;;;;;;;;8.44;43.39;100205.44;5113846;28;984;-70
2023/03/18 07:29:15;;;;;;;;;;;;;;;8.34;44.67;100217.09;5113511;28;1024;-68
2023/03/18 07:31:42;;;;;;;;;;;;;;;8.33;44.43;100215.53;5113497;28;965;-68
2023/03/18 07:34:09;;;;;;;;;;;;;;;8.16;44.11;100195.66;5113521;28;1889;-70
2023/03/18 07:36:38;;;;;;;;;;;;;;;8.22;44.13;100201.63;5113385;28;899;-73
2023/03/18 07:39:06;;;;;;;;;;;;;;;8.34;44.38;100206.06;5113655;28;831;-70
2023/03/18 07:41:32;;;;;;;;;;;;;;;8.36;43.62;100215.56;5113263;28;914;-72
2023/03/18 07:43:59;;;;;;;;;;;;;;;8.52;44.95;100198.03;5113237;28;921;-66
2023/03/18 07:46:28;;;;;;;;;;;;;;;8.58;43.41;100205.56;5113230;28;827;-75
2023/03/18 07:48:54;;;;;;;;;;;;;;;8.70;43.54;100206.47;5113045;28;874;-70
2023/03/18 08:00:29;;;;;;;;;;;;;;;9.23;42.63;100213.59;5113051;28;677;-74
2023/03/18 08:02:56;;;;;;;;;;;;;;;9.26;43.80;100212.81;5112869;28;816;-68
2023/03/18 08:05:24;;;;;;;;;;;;;;;9.68;41.24;100219.78;5112684;28;812;-70
2023/03/18 08:07:50;;;;;;;;;;;;;;;9.36;41.90;100223.91;5112703;28;1013;-72
2023/03/18 08:10:18;;;;;;;;;;;;;;;9.61;40.80;100218.56;5112710;28;886;-69
2023/03/18 08:12:45;;;;;;;;;;;;;;;9.71;42.04;100235.59;5112351;28;1906;-69
2023/03/18 08:15:11;;;;;;;;;;;;;;;9.34;41.63;100206.16;5113057;27;866;-69
2023/03/18 08:17:38;;;;;;;;;;;;;;;9.13;42.29;100235.19;5113426;28;895;-63
2023/03/18 08:20:05;;;;;;;;;;;;;;;9.12;41.94;100216.28;5113086;28;847;-74
2023/03/18 08:22:32;;;;;;;;;;;;;;;9.22;42.39;100206.47;5111211;28;1192;-70
2023/03/18 08:24:59;;;;;;;;;;;;;;;9.77;42.29;100217.44;5112482;28;871;-71
2023/03/18 08:27:24;;;;;;;;;;;;;;;9.86;41.39;100211.56;5111103;28;1190;-69
2023/03/18 08:29:51;;;;;;;;;;;;;;;9.66;42.77;100231.19;5112624;28;874;-71
2023/03/18 08:32:18;;;;;;;;;;;;;;;9.64;42.38;100228.03;5112855;28;866;-70
2023/03/18 08:34:44;;;;;;;;;;;;;;;9.25;44.15;100227.78;5111330;28;1889;-69
2023/03/18 08:37:13;;;;;;;;;;;;;;;9.64;43.51;100211.47;5112661;28;882;-69
2023/03/18 08:39:42;;;;;;;;;;;;;;;9.56;42.55;100224.47;5112831;28;827;-70
2023/03/18 08:42:09;;;;;;;;;;;;;;;9.66;44.08;100220.16;5112585;28;886;-70
2023/03/18 08:44:36;;;;;;;;;;;;;;;10.11;42.24;100222.72;5112312;28;793;-70
2023/03/18 08:47:03;;;;;;;;;;;;;;;10.02;41.69;100223.88;5112633;27;827;-70
2023/03/18 08:49:28;;;;;;;;;;;;;;;10.18;41.85;100218.03;5112317;28;878;-68
2023/03/18 08:51:55;;;;;;;;;;;;;;;10.25;42.08;100244.88;5112274;28;902;-65
2023/03/18 08:54:21;;;;;;;;;;;;;;;10.19;41.07;100235.38;5112132;28;1889;-70
2023/03/18 08:56:48;;;;;;;;;;;;;;;10.12;42.39;100225.09;5112239;28;851;-69
2023/03/18 08:59:14;;;;;;;;;;;;;;;10.40;41.39;100227.19;5112059;28;866;-76
2023/03/18 09:01:46;;;;;;;;;;;;;;;9.85;42.94;100227.34;5110599;28;1329;-70
2023/03/18 09:04:13;;;;;;;;;;;;;;;9.84;41.89;100239.59;5112156;28;882;-69
2023/03/18 09:06:40;;;;;;;;;;;;;;;9.63;42.13;100236.72;5111893;28;905;-69
2023/03/18 09:09:07;;;;;;;;;;;;;;;9.39;42.00;100236.97;5116484;28;912;-72
2023/03/18 09:11:35;;;;;;;;;;;;;;;9.27;43.94;100244.75;5114654;28;1225;-69
2023/03/18 09:14:01;;;;;;;;;;;;;;;9.33;43.20;100249.53;5116063;28;1976;-70
2023/03/18 09:16:28;;;;;;;;;;;;;;;9.44;43.34;100249.59;5116063;28;894;-71
2023/03/18 09:18:55;;;;;;;;;;;;;;;9.53;43.80;100243.75;5116218;28;949;-71
2023/03/18 09:21:22;;;;;;;;;;;;;;;9.77;43.70;100229.31;5116397;28;830;-69
2023/03/18 09:23:49;;;;;;;;;;;;;;;9.69;42.81;100226.91;5116114;27;882;-70
2023/03/18 09:26:17;;;;;;;;;;;;;;;9.56;44.18;100232.72;5115906;28;902;-70
2023/03/18 09:28:45;;;;;;;;;;;;;;;9.74;44.50;100219.03;5112357;28;1172;-69
2023/03/18 09:31:12;;;;;;;;;;;;;;;9.78;42.23;100249.41;5114965;28;1135;-72
2023/03/18 09:33:40;;;;;;;;;;;;;;;9.53;41.66;100227.97;5114832;28;1935;-70
2023/03/18 09:36:08;;;;;;;;;;;;;;;9.40;42.63;100215.66;5116078;28;914;-75
2023/03/18 09:38:35;;;;;;;;;;;;;;;9.40;43.21;100216.47;5116008;28;881;-70
2023/03/18 10:09:29;;;;;;;;;;;;;;;10.16;39.62;100216.84;5669888;22;1717;-68
2023/03/18 10:12:19;;;;;;;;;;;;;;;10.13;41.54;100210.09;5094433;28;827;-69
2023/03/18 10:15:06;;;;;;;;;;;;;;;10.63;41.42;100204.75;5065717;28;1963;-71
2023/03/18 10:17:32;;;;;;;;;;;;;;;10.33;39.59;100205.09;5094121;28;811;-71
2023/03/18 10:20:03;;;;;;;;;;;;;;;10.24;38.00;100201.84;5095168;28;819;-71
2023/03/18 10:22:48;;;;;;;;;;;;;;;10.15;39.04;100220.78;5093270;28;1006;-69
2023/03/18 10:25:18;;;;;;;;;;;;;;;10.34;40.56;100203.88;5094405;28;851;-70
2023/03/18 10:27:44;;;;;;;;;;;;;;;10.52;39.74;100198.41;5094259;28;819;-69
2023/03/18 10:30:29;;;;;;;;;;;;;;;10.97;38.83;100190.53;5076174;28;1175;-70
2023/03/18 10:33:19;;;;;;;;;;;;;;;11.19;37.25;100171.94;5094312;28;1882;-72
2023/03/18 10:35:46;;;;;;;;;;;;;;;10.57;40.13;100186.16;5083540;28;1127;-69
2023/03/18 10:38:22;;;;;;;;;;;;;;;10.38;39.89;100182.59;5093977;28;854;-69
2023/03/18 10:40:49;;;;;;;;;;;;;;;10.31;39.08;100198.38;5094116;28;854;-75
2023/03/18 10:43:20;;;;;;;;;;;;;;;10.18;38.90;100170.28;5075819;28;1235;-69
2023/03/18 10:45:48;;;;;;;;;;;;;;;10.32;38.26;100169.53;5093842;28;847;-70
2023/03/18 10:48:21;;;;;;;;;;;;;;;10.59;38.87;100156.94;5075663;28;1156;-71
2023/03/18 10:51:02;;;;;;;;;;;;;;;10.69;39.17;100166.44;5094247;28;871;-70
2023/03/18 10:53:35;;;;;;;;;;;;;;;11.02;39.20;100162.47;5093784;28;1941;-69
2023/03/18 10:56:04;;;;;;;;;;;;;;;11.88;36.93;100160.66;5093819;28;899;-68
2023/03/18 10:58:31;;;;;;;;;;;;;;;12.10;37.24;100156.63;5093669;28;823;-68
2023/03/18 11:00:58;;;;;;;;;;;;;;;12.40;36.65;100135.84;5093622;28;875;-68
2023/03/18 11:03:26;;;;;;;;;;;;;;;12.50;35.57;100150.81;5093534;28;859;-69
2023/03/18 11:05:54;;;;;;;;;;;;;;;12.17;35.87;100167.66;5093797;28;843;-70
2023/03/18 11:08:31;;;;;;;;;;;;;;;11.90;37.34;100139.69;5093604;28;1008;-69
2023/03/18 11:11:01;;;;;;;;;;;;;;;11.80;37.62;100144.09;5093210;28;1435;-70
2023/03/18 11:13:32;;;;;;;;;;;;;;;11.40;38.28;100135.13;5093429;28;1975;-69
2023/03/18 11:15:59;;;;;;;;;;;;;;;10.76;38.01;100132.47;5093433;28;822;-69
2023/03/18 11:18:26;;;;;;;;;;;;;;;10.57;37.74;100131.69;5093647;28;942;-69
2023/03/18 11:21:00;;;;;;;;;;;;;;;10.49;39.34;100130.09;5093293;28;859;-69
2023/03/18 11:23:48;;;;;;;;;;;;;;;10.52;39.08;100129.31;5093481;28;827;-70
2023/03/18 11:26:20;;;;;;;;;;;;;;;10.69;39.32;100124.16;5093678;28;839;-70
2023/03/18 11:28:47;;;;;;;;;;;;;;;11.28;39.12;100137.53;5093076;28;871;-69
2023/03/18 11:31:17;;;;;;;;;;;;;;;11.76;39.88;100125.91;5092189;28;844;-69
2023/03/18 11:33:44;;;;;;;;;;;;;;;11.98;38.83;100127.38;5092859;28;1890;-70
2023/03/18 11:36:19;;;;;;;;;;;;;;;11.87;38.58;100128.63;5074810;28;1397;-69
2023/03/18 11:38:55;;;;;;;;;;;;;;;11.96;39.15;100129.00;5092745;28;886;-69
2023/03/18 11:41:26;;;;;;;;;;;;;;;11.81;38.13;100131.81;5093078;28;874;-68
2023/03/18 11:44:04;;;;;;;;;;;;;;;11.65;37.24;100125.97;5092791;28;1053;-67
2023/03/18 11:46:51;;;;;;;;;;;;;;;11.50;38.30;100118.88;5092834;28;847;-67
2023/03/18 11:49:24;;;;;;;;;;;;;;;11.49;39.53;100128.38;5047198;28;1215;-68
2023/03/18 11:52:02;;;;;;;;;;;;;;;11.41;40.02;100128.41;5092641;28;835;-68
2023/03/18 11:54:44;;;;;;;;;;;;;;;11.71;39.64;100107.72;5092588;28;1889;-69
2023/03/18 11:57:10;;;;;;;;;;;;;;;12.69;38.93;100130.09;5074380;28;1803;-68
2023/03/18 11:59:49;;;;;;;;;;;;;;;12.66;37.78;100135.25;5074436;28;820;-70
2023/03/18 12:02:35;;;;;;;;;;;;;;;11.99;37.80;100128.97;5074666;28;1457;-69
2023/03/18 12:05:27;;;;;;;;;;;;;;;11.74;38.17;100120.75;5092503;28;893;-70
2023/03/18 12:08:09;;;;;;;;;;;;;;;11.47;38.18;100109.41;5092571;28;1319;-75
2023/03/18 12:10:48;;;;;;;;;;;;;;;11.15;38.09;100134.41;5092166;28;1478;-69
2023/03/18 12:13:14;;;;;;;;;;;;;;;11.09;38.81;100117.41;5092403;28;1978;-70
2023/03/18 12:15:46;;;;;;;;;;;;;;;11.17;38.07;100123.72;5074127;28;1524;-70
2023/03/18 12:18:22;;;;;;;;;;;;;;;11.21;38.74;100118.97;5092355;28;819;-70
2023/03/18 12:20:50;;;;;;;;;;;;;;;11.16;38.39;100122.13;5092267;28;846;-71
2023/03/18 12:23:33;;;;;;;;;;;;;;;10.87;38.84;100126.94;5093224;28;767;-75
2023/03/18 12:25:59;;;;;;;;;;;;;;;10.70;39.97;100129.31;5092258;28;1015;-70
2023/03/18 12:28:44;;;;;;;;;;;;;;;10.70;39.83;100121.00;5092095;28;847;-70
2023/03/18 12:31:21;;;;;;;;;;;;;;;11.02;39.81;100118.22;5073901;28;1275;-70
2023/03/18 12:33:55;;;;;;;;;;;;;;;11.23;40.16;100117.38;5092026;28;1890;-69
2023/03/18 12:36:41;;;;;;;;;;;;;;;11.52;39.41;100108.19;5091825;28;815;-68
2023/03/18 12:39:23;;;;;;;;;;;;;;;11.53;38.96;100112.56;5091862;28;923;-70
2023/03/18 12:42:00;;;;;;;;;;;;;;;11.56;39.26;100082.06;5092093;28;831;-68
2023/03/18 12:44:27;;;;;;;;;;;;;;;11.30;39.51;100110.25;5091817;28;957;-71
2023/03/18 12:47:00;;;;;;;;;;;;;;;10.98;40.38;100100.06;5091748;28;849;-71
2023/03/18 12:49:33;;;;;;;;;;;;;;;10.76;39.95;100096.53;5091720;28;855;-71
2023/03/18 12:52:00;;;;;;;;;;;;;;;10.63;39.73;100102.47;5091764;28;851;-70
2023/03/18 12:54:29;;;;;;;;;;;;;;;10.60;40.24;100091.41;5091798;28;1955;-70
2023/03/18 12:57:10;;;;;;;;;;;;;;;10.50;40.25;100093.00;5091573;28;945;-69
2023/03/18 12:59:37;;;;;;;;;;;;;;;10.41;40.70;100101.69;5091616;28;866;-69
2023/03/18 13:02:03;;;;;;;;;;;;;;;10.29;41.32;100104.00;5091640;28;819;-69
2023/03/18 13:04:35;;;;;;;;;;;;;;;10.20;41.45;100087.81;5091491;28;839;-75
2023/03/18 13:07:14;;;;;;;;;;;;;;;10.07;42.56;100108.69;5091815;28;819;-70
2023/03/18 13:09:56;;;;;;;;;;;;;;;9.97;43.07;100111.03;5091421;28;1092;-68
2023/03/18 13:12:37;;;;;;;;;;;;;;;9.84;44.19;100100.78;5091496;28;832;-71
2023/03/18 13:15:23;;;;;;;;;;;;;;;9.76;45.13;100117.28;5089400;28;1971;-69
2023/03/18 13:17:51;;;;;;;;;;;;;;;9.65;44.71;100108.19;5073248;28;1168;-70
2023/03/18 13:20:22;;;;;;;;;;;;;;;9.64;44.90;100117.63;5073343;28;880;-70
2023/03/18 13:23:08;;;;;;;;;;;;;;;9.56;45.72;100113.28;5091476;28;831;-70
2023/03/18 13:25:44;;;;;;;;;;;;;;;9.54;45.30;100108.16;5091655;28;827;-69
2023/03/18 13:28:29;;;;;;;;;;;;;;;9.56;45.92;100108.56;5091378;28;859;-69
2023/03/18 13:31:03;;;;;;;;;;;;;;;9.62;46.06;100108.94;5091249;28;887;-68
2023/03/18 13:33:29;;;;;;;;;;;;;;;9.63;46.48;100104.25;5091297;28;1949;-69
2023/03/18 13:36:14;;;;;;;;;;;;;;;9.68;46.89;100098.34;5091181;28;819;-69
2023/03/18 13:38:47;;;;;;;;;;;;;;;9.75;47.63;100104.69;5091584;28;831;-69
2023/03/18 13:41:17;;;;;;;;;;;;;;;9.69;47.35;100108.22;5073073;28;1545;-69
2023/03/18 13:43:48;;;;;;;;;;;;;;;9.66;47.98;100095.97;5091172;28;930;-70
2023/03/18 13:46:19;;;;;;;;;;;;;;;9.69;47.51;100106.22;5091500;28;831;-69
2023/03/18 13:48:46;;;;;;;;;;;;;;;9.65;47.83;100110.16;5091284;28;871;-69
2023/03/18 13:51:45;;;;;;;;;;;;;;;9.57;47.85;100093.56;5091171;28;850;-74
2023/03/18 13:54:14;;;;;;;;;;;;;;;9.50;48.93;100104.59;5093330;28;1882;-69